Terminal Aerodrome Forecast
Issued by NWS

Current Version | Previous Version | Text Only | Print | Product List | Glossary On
Versions: 1 2 3 4 5 6 7 8 9 10 11 12 13
152
FTUS45 KVEF 281731
TAFDAG
TAF
KDAG 281731Z 2818/2918 VRB06KT P6SM FEW120 FEW250
     FM281900 09010KT P6SM FEW120 FEW250
     FM282100 12012G20KT P6SM FEW120 FEW250
     FM282300 17011KT P6SM FEW120 FEW250
     FM290300 25011KT P6SM SKC
     FM291400 28010KT P6SM SKC=

USA.gov is the U.S. government's official web portal to all federal, state and local government web resources and services.